Terminal Aerodrome Forecast
Issued by NWS

Home | Current Version | Previous Version | Text Only | Print | Product List | Glossary On
Versions: 1 2 3 4 5 6 7 8 9 10 11 12 13 14 15 16 17 18 19 20 21
000
FTUS41 KCLE 270322 AAB
TAFFDY
TAF AMD
KFDY 270322Z 2703/2724 20010KT P6SM VCSH OVC050
     FM270500 20004KT 6SM BR BKN012
     FM270900 23006KT 5SM BR OVC010
     FM271500 24008KT P6SM BKN025
     FM271800 22006KT P6SM BKN050 OVC100=

USA.gov is the U.S. government's official web portal to all federal, state and local government web resources and services.